Pine Level, Alabama
Current Conditions -  °F | °C
As of 5:53 AM on Monday 26 Jan 2015 (Local Time) from KTOI Reporting Station
Broken Clouds Broken Clouds  
Wind Chill: 13°   Ceiling: 3200
Heat Index: 13°   Visibility: 10mi
Dew Point:   Wind: 18mph
Humidity: 42%   Direction: 290°WNW
Pressure: 29.93"   Gusts: 26mph
Location:  32.07°N, 86.06°W
Report Text: KTOI 261153Z AUTO 29016G23KT 10SM BKN032 13/01 A2993 RMK AO2 PK WND 32029/1126 SLP133 60000 T01330006 10178 20089 53019
Loading
Personal Weather Stations






























Interactive Weather Map New forecast layout! Learn more

10-Day Weather Forecast

Advertisements
Track Severe Weather on mobile